sensor_id;sensor_type;location;lat;lon;timestamp;P1;durP1;ratioP1;P2;durP2;ratioP2
72335;SDS011;62171;48.446;8.834;2022-08-23T00:01:34;6.72;;;4.35;;
72335;SDS011;62171;48.446;8.834;2022-08-23T00:04:07;8.82;;;4.82;;
72335;SDS011;62171;48.446;8.834;2022-08-23T00:06:40;8.20;;;4.93;;
72335;SDS011;62171;48.446;8.834;2022-08-23T00:09:06;8.98;;;4.82;;
72335;SDS011;62171;48.446;8.834;2022-08-23T00:11:42;8.02;;;5.22;;
72335;SDS011;62171;48.446;8.834;2022-08-23T00:14:25;5.88;;;4.93;;
72335;SDS011;62171;48.446;8.834;2022-08-23T00:16:53;7.30;;;4.75;;
72335;SDS011;62171;48.446;8.834;2022-08-23T00:19:20;8.65;;;5.78;;
72335;SDS011;62171;48.446;8.834;2022-08-23T00:21:46;6.97;;;4.82;;
72335;SDS011;62171;48.446;8.834;2022-08-23T00:24:13;6.97;;;5.25;;
72335;SDS011;62171;48.446;8.834;2022-08-23T00:26:54;6.03;;;5.13;;
72335;SDS011;62171;48.446;8.834;2022-08-23T00:32:18;8.43;;;5.10;;
72335;SDS011;62171;48.446;8.834;2022-08-23T00:34:46;6.20;;;4.72;;
72335;SDS011;62171;48.446;8.834;2022-08-23T00:37:11;7.28;;;5.50;;
72335;SDS011;62171;48.446;8.834;2022-08-23T00:39:37;8.32;;;4.78;;
72335;SDS011;62171;48.446;8.834;2022-08-23T00:42:28;7.85;;;5.22;;
72335;SDS011;62171;48.446;8.834;2022-08-23T00:45:23;7.88;;;5.03;;
72335;SDS011;62171;48.446;8.834;2022-08-23T00:48:29;6.68;;;5.20;;
72335;SDS011;62171;48.446;8.834;2022-08-23T00:51:01;8.35;;;6.43;;
72335;SDS011;62171;48.446;8.834;2022-08-23T00:53:36;9.27;;;5.38;;
72335;SDS011;62171;48.446;8.834;2022-08-23T00:56:06;6.90;;;4.78;;
72335;SDS011;62171;48.446;8.834;2022-08-23T00:58:34;8.98;;;5.63;;
72335;SDS011;62171;48.446;8.834;2022-08-23T01:01:00;8.48;;;5.72;;
72335;SDS011;62171;48.446;8.834;2022-08-23T01:03:28;7.20;;;5.70;;
72335;SDS011;62171;48.446;8.834;2022-08-23T01:06:03;8.77;;;6.43;;
72335;SDS011;62171;48.446;8.834;2022-08-23T01:08:30;7.32;;;5.70;;
72335;SDS011;62171;48.446;8.834;2022-08-23T01:11:02;9.82;;;5.97;;
72335;SDS011;62171;48.446;8.834;2022-08-23T01:13:40;6.88;;;5.45;;
72335;SDS011;62171;48.446;8.834;2022-08-23T01:16:18;7.55;;;5.78;;
72335;SDS011;62171;48.446;8.834;2022-08-23T01:18:49;7.38;;;5.40;;
72335;SDS011;62171;48.446;8.834;2022-08-23T01:21:18;9.75;;;5.93;;
72335;SDS011;62171;48.446;8.834;2022-08-23T01:23:50;7.90;;;5.35;;
72335;SDS011;62171;48.446;8.834;2022-08-23T01:26:20;7.30;;;5.47;;
72335;SDS011;62171;48.446;8.834;2022-08-23T01:28:47;8.68;;;5.35;;
72335;SDS011;62171;48.446;8.834;2022-08-23T01:31:13;6.35;;;5.10;;
72335;SDS011;62171;48.446;8.834;2022-08-23T01:33:40;6.25;;;4.72;;
72335;SDS011;62171;48.446;8.834;2022-08-23T01:36:08;7.30;;;4.82;;
72335;SDS011;62171;48.446;8.834;2022-08-23T01:38:36;7.05;;;4.90;;
72335;SDS011;62171;48.446;8.834;2022-08-23T01:41:02;10.18;;;6.00;;
72335;SDS011;62171;48.446;8.834;2022-08-23T01:43:28;8.35;;;6.05;;
72335;SDS011;62171;48.446;8.834;2022-08-23T01:45:54;7.95;;;5.70;;
72335;SDS011;62171;48.446;8.834;2022-08-23T01:48:20;7.68;;;5.78;;
72335;SDS011;62171;48.446;8.834;2022-08-23T01:50:47;6.18;;;5.00;;
72335;SDS011;62171;48.446;8.834;2022-08-23T01:53:13;10.75;;;6.00;;
72335;SDS011;62171;48.446;8.834;2022-08-23T01:55:39;8.32;;;6.15;;
72335;SDS011;62171;48.446;8.834;2022-08-23T01:58:06;7.15;;;5.18;;
72335;SDS011;62171;48.446;8.834;2022-08-23T02:00:33;9.18;;;6.00;;
72335;SDS011;62171;48.446;8.834;2022-08-23T02:03:01;7.45;;;5.40;;
72335;SDS011;62171;48.446;8.834;2022-08-23T02:05:28;8.98;;;5.22;;
72335;SDS011;62171;48.446;8.834;2022-08-23T02:07:54;7.00;;;4.88;;
72335;SDS011;62171;48.446;8.834;2022-08-23T02:10:20;7.03;;;5.50;;
72335;SDS011;62171;48.446;8.834;2022-08-23T02:12:46;7.65;;;6.47;;
72335;SDS011;62171;48.446;8.834;2022-08-23T02:15:13;8.38;;;5.53;;
72335;SDS011;62171;48.446;8.834;2022-08-23T02:17:39;7.60;;;5.82;;
72335;SDS011;62171;48.446;8.834;2022-08-23T02:20:05;9.88;;;5.82;;
72335;SDS011;62171;48.446;8.834;2022-08-23T02:22:31;8.68;;;5.72;;
72335;SDS011;62171;48.446;8.834;2022-08-23T02:24:57;8.23;;;6.13;;
72335;SDS011;62171;48.446;8.834;2022-08-23T02:27:23;9.65;;;6.03;;
72335;SDS011;62171;48.446;8.834;2022-08-23T02:29:49;8.25;;;5.43;;
72335;SDS011;62171;48.446;8.834;2022-08-23T02:32:15;8.38;;;6.20;;
72335;SDS011;62171;48.446;8.834;2022-08-23T02:34:42;8.25;;;6.07;;
72335;SDS011;62171;48.446;8.834;2022-08-23T02:37:09;8.45;;;6.05;;
72335;SDS011;62171;48.446;8.834;2022-08-23T02:39:36;9.40;;;6.68;;
72335;SDS011;62171;48.446;8.834;2022-08-23T02:42:02;8.02;;;5.70;;
72335;SDS011;62171;48.446;8.834;2022-08-23T02:44:28;9.27;;;6.55;;
72335;SDS011;62171;48.446;8.834;2022-08-23T02:46:55;10.82;;;6.35;;
72335;SDS011;62171;48.446;8.834;2022-08-23T02:49:20;9.82;;;6.43;;
72335;SDS011;62171;48.446;8.834;2022-08-23T02:51:46;9.05;;;5.63;;
72335;SDS011;62171;48.446;8.834;2022-08-23T02:54:12;7.88;;;6.78;;
72335;SDS011;62171;48.446;8.834;2022-08-23T02:56:37;8.55;;;5.82;;
72335;SDS011;62171;48.446;8.834;2022-08-23T02:59:03;8.98;;;6.18;;
72335;SDS011;62171;48.446;8.834;2022-08-23T03:01:34;9.43;;;6.40;;
72335;SDS011;62171;48.446;8.834;2022-08-23T03:04:02;9.48;;;6.10;;
72335;SDS011;62171;48.446;8.834;2022-08-23T03:06:29;8.10;;;5.70;;
72335;SDS011;62171;48.446;8.834;2022-08-23T03:08:56;7.78;;;5.60;;
72335;SDS011;62171;48.446;8.834;2022-08-23T03:11:22;8.15;;;5.72;;
72335;SDS011;62171;48.446;8.834;2022-08-23T03:13:49;8.68;;;5.97;;
72335;SDS011;62171;48.446;8.834;2022-08-23T03:16:16;9.07;;;5.95;;
72335;SDS011;62171;48.446;8.834;2022-08-23T03:18:42;8.25;;;5.47;;
72335;SDS011;62171;48.446;8.834;2022-08-23T03:21:08;9.15;;;5.75;;
72335;SDS011;62171;48.446;8.834;2022-08-23T03:23:35;7.78;;;6.15;;
72335;SDS011;62171;48.446;8.834;2022-08-23T03:26:02;9.38;;;6.68;;
72335;SDS011;62171;48.446;8.834;2022-08-23T03:28:28;7.90;;;5.65;;
72335;SDS011;62171;48.446;8.834;2022-08-23T03:30:54;7.30;;;5.68;;
72335;SDS011;62171;48.446;8.834;2022-08-23T03:33:20;10.63;;;6.50;;
72335;SDS011;62171;48.446;8.834;2022-08-23T03:35:46;8.77;;;5.93;;
72335;SDS011;62171;48.446;8.834;2022-08-23T03:38:12;8.02;;;6.30;;
72335;SDS011;62171;48.446;8.834;2022-08-23T03:40:38;9.15;;;6.72;;
72335;SDS011;62171;48.446;8.834;2022-08-23T03:43:04;8.23;;;6.00;;
72335;SDS011;62171;48.446;8.834;2022-08-23T03:45:30;11.25;;;7.32;;
72335;SDS011;62171;48.446;8.834;2022-08-23T03:47:55;9.98;;;7.15;;
72335;SDS011;62171;48.446;8.834;2022-08-23T03:50:21;10.63;;;7.70;;
72335;SDS011;62171;48.446;8.834;2022-08-23T03:52:47;9.32;;;6.35;;
72335;SDS011;62171;48.446;8.834;2022-08-23T03:55:13;8.70;;;6.03;;
72335;SDS011;62171;48.446;8.834;2022-08-23T03:57:38;9.38;;;6.15;;
72335;SDS011;62171;48.446;8.834;2022-08-23T04:00:05;8.27;;;6.43;;
72335;SDS011;62171;48.446;8.834;2022-08-23T04:02:32;9.88;;;6.07;;
72335;SDS011;62171;48.446;8.834;2022-08-23T04:04:57;10.00;;;6.60;;
72335;SDS011;62171;48.446;8.834;2022-08-23T04:07:23;9.23;;;6.25;;
72335;SDS011;62171;48.446;8.834;2022-08-23T04:09:48;11.30;;;7.28;;
72335;SDS011;62171;48.446;8.834;2022-08-23T04:12:14;8.70;;;6.50;;
72335;SDS011;62171;48.446;8.834;2022-08-23T04:14:39;10.98;;;7.35;;
72335;SDS011;62171;48.446;8.834;2022-08-23T04:17:05;8.55;;;6.88;;
72335;SDS011;62171;48.446;8.834;2022-08-23T04:19:30;10.13;;;7.38;;
72335;SDS011;62171;48.446;8.834;2022-08-23T04:21:56;9.40;;;6.68;;
72335;SDS011;62171;48.446;8.834;2022-08-23T04:24:21;14.48;;;7.45;;
72335;SDS011;62171;48.446;8.834;2022-08-23T04:26:47;10.20;;;7.55;;
72335;SDS011;62171;48.446;8.834;2022-08-23T04:29:13;7.68;;;6.05;;
72335;SDS011;62171;48.446;8.834;2022-08-23T04:31:41;10.52;;;6.40;;
72335;SDS011;62171;48.446;8.834;2022-08-23T04:34:09;7.63;;;6.15;;
72335;SDS011;62171;48.446;8.834;2022-08-23T04:36:36;8.98;;;6.05;;
72335;SDS011;62171;48.446;8.834;2022-08-23T04:39:04;7.15;;;5.53;;
72335;SDS011;62171;48.446;8.834;2022-08-23T04:41:29;8.32;;;6.07;;
72335;SDS011;62171;48.446;8.834;2022-08-23T04:44:14;8.57;;;6.28;;
72335;SDS011;62171;48.446;8.834;2022-08-23T04:46:40;9.88;;;6.13;;
72335;SDS011;62171;48.446;8.834;2022-08-23T04:49:07;8.63;;;6.40;;
72335;SDS011;62171;48.446;8.834;2022-08-23T04:51:33;10.63;;;6.07;;
72335;SDS011;62171;48.446;8.834;2022-08-23T04:53:59;8.85;;;6.05;;
72335;SDS011;62171;48.446;8.834;2022-08-23T04:56:24;8.65;;;6.53;;
72335;SDS011;62171;48.446;8.834;2022-08-23T04:58:50;9.00;;;6.05;;
72335;SDS011;62171;48.446;8.834;2022-08-23T05:01:15;8.30;;;6.15;;
72335;SDS011;62171;48.446;8.834;2022-08-23T05:03:41;9.35;;;6.28;;
72335;SDS011;62171;48.446;8.834;2022-08-23T05:06:06;8.00;;;5.90;;
72335;SDS011;62171;48.446;8.834;2022-08-23T05:08:32;8.45;;;6.50;;
72335;SDS011;62171;48.446;8.834;2022-08-23T05:11:04;9.65;;;6.15;;
72335;SDS011;62171;48.446;8.834;2022-08-23T05:13:31;11.32;;;6.57;;
72335;SDS011;62171;48.446;8.834;2022-08-23T05:15:58;9.65;;;6.63;;
72335;SDS011;62171;48.446;8.834;2022-08-23T05:18:23;10.90;;;6.88;;
72335;SDS011;62171;48.446;8.834;2022-08-23T05:20:50;8.35;;;6.18;;
72335;SDS011;62171;48.446;8.834;2022-08-23T05:23:15;7.88;;;6.45;;
72335;SDS011;62171;48.446;8.834;2022-08-23T05:25:41;8.57;;;6.43;;
72335;SDS011;62171;48.446;8.834;2022-08-23T05:28:29;8.88;;;6.90;;
72335;SDS011;62171;48.446;8.834;2022-08-23T05:31:01;8.18;;;6.53;;
72335;SDS011;62171;48.446;8.834;2022-08-23T05:33:29;8.43;;;5.85;;
72335;SDS011;62171;48.446;8.834;2022-08-23T05:35:56;9.82;;;6.45;;
72335;SDS011;62171;48.446;8.834;2022-08-23T05:38:22;9.25;;;6.65;;
72335;SDS011;62171;48.446;8.834;2022-08-23T05:40:48;8.63;;;6.43;;
72335;SDS011;62171;48.446;8.834;2022-08-23T05:43:15;10.55;;;6.43;;
72335;SDS011;62171;48.446;8.834;2022-08-23T05:45:42;9.25;;;5.93;;
72335;SDS011;62171;48.446;8.834;2022-08-23T05:48:07;11.80;;;6.32;;
72335;SDS011;62171;48.446;8.834;2022-08-23T05:50:34;9.45;;;6.47;;
72335;SDS011;62171;48.446;8.834;2022-08-23T05:53:00;10.27;;;7.05;;
72335;SDS011;62171;48.446;8.834;2022-08-23T05:55:26;9.30;;;6.95;;
72335;SDS011;62171;48.446;8.834;2022-08-23T05:57:51;8.95;;;6.88;;
72335;SDS011;62171;48.446;8.834;2022-08-23T06:00:17;9.00;;;6.10;;
72335;SDS011;62171;48.446;8.834;2022-08-23T06:02:43;7.75;;;6.05;;
72335;SDS011;62171;48.446;8.834;2022-08-23T06:05:08;9.50;;;5.50;;
72335;SDS011;62171;48.446;8.834;2022-08-23T06:07:35;9.30;;;6.03;;
72335;SDS011;62171;48.446;8.834;2022-08-23T06:10:01;8.95;;;6.47;;
72335;SDS011;62171;48.446;8.834;2022-08-23T06:12:27;7.70;;;5.72;;
72335;SDS011;62171;48.446;8.834;2022-08-23T06:14:52;7.68;;;5.72;;
72335;SDS011;62171;48.446;8.834;2022-08-23T06:17:17;8.95;;;6.30;;
72335;SDS011;62171;48.446;8.834;2022-08-23T06:19:43;9.07;;;6.90;;
72335;SDS011;62171;48.446;8.834;2022-08-23T06:22:08;9.48;;;6.18;;
72335;SDS011;62171;48.446;8.834;2022-08-23T06:24:34;9.52;;;6.30;;
72335;SDS011;62171;48.446;8.834;2022-08-23T06:26:59;7.38;;;5.57;;
72335;SDS011;62171;48.446;8.834;2022-08-23T06:29:25;8.30;;;6.15;;
72335;SDS011;62171;48.446;8.834;2022-08-23T06:31:51;8.73;;;6.40;;
72335;SDS011;62171;48.446;8.834;2022-08-23T06:34:18;7.30;;;5.88;;
72335;SDS011;62171;48.446;8.834;2022-08-23T06:36:56;7.72;;;6.20;;
72335;SDS011;62171;48.446;8.834;2022-08-23T06:39:24;8.55;;;5.75;;
72335;SDS011;62171;48.446;8.834;2022-08-23T06:41:51;10.00;;;6.32;;
72335;SDS011;62171;48.446;8.834;2022-08-23T06:44:17;7.05;;;5.50;;
72335;SDS011;62171;48.446;8.834;2022-08-23T06:46:44;9.48;;;6.03;;
72335;SDS011;62171;48.446;8.834;2022-08-23T06:49:11;8.35;;;5.78;;
72335;SDS011;62171;48.446;8.834;2022-08-23T06:51:59;9.10;;;6.00;;
72335;SDS011;62171;48.446;8.834;2022-08-23T06:54:25;13.40;;;5.72;;
72335;SDS011;62171;48.446;8.834;2022-08-23T06:56:53;6.82;;;5.45;;
72335;SDS011;62171;48.446;8.834;2022-08-23T06:59:19;8.35;;;5.38;;
72335;SDS011;62171;48.446;8.834;2022-08-23T07:01:49;6.90;;;5.57;;
72335;SDS011;62171;48.446;8.834;2022-08-23T07:04:22;7.45;;;5.78;;
72335;SDS011;62171;48.446;8.834;2022-08-23T07:06:53;6.82;;;5.35;;
72335;SDS011;62171;48.446;8.834;2022-08-23T07:09:19;6.18;;;5.38;;
72335;SDS011;62171;48.446;8.834;2022-08-23T07:11:45;6.85;;;5.30;;
72335;SDS011;62171;48.446;8.834;2022-08-23T07:14:12;7.13;;;5.07;;
72335;SDS011;62171;48.446;8.834;2022-08-23T07:16:45;6.32;;;5.53;;
72335;SDS011;62171;48.446;8.834;2022-08-23T07:19:13;6.78;;;5.45;;
72335;SDS011;62171;48.446;8.834;2022-08-23T07:21:39;6.65;;;5.18;;
72335;SDS011;62171;48.446;8.834;2022-08-23T07:24:06;6.28;;;4.82;;
72335;SDS011;62171;48.446;8.834;2022-08-23T07:26:32;7.65;;;5.03;;
72335;SDS011;62171;48.446;8.834;2022-08-23T07:28:58;6.50;;;4.63;;
72335;SDS011;62171;48.446;8.834;2022-08-23T07:31:25;8.38;;;4.88;;
72335;SDS011;62171;48.446;8.834;2022-08-23T07:33:55;7.18;;;4.72;;
72335;SDS011;62171;48.446;8.834;2022-08-23T07:36:23;5.70;;;4.45;;
72335;SDS011;62171;48.446;8.834;2022-08-23T07:38:50;48.42;;;26.70;;
72335;SDS011;62171;48.446;8.834;2022-08-23T07:41:17;56.28;;;34.83;;
72335;SDS011;62171;48.446;8.834;2022-08-23T07:43:43;15.30;;;8.90;;
72335;SDS011;62171;48.446;8.834;2022-08-23T07:46:09;41.28;;;25.85;;
72335;SDS011;62171;48.446;8.834;2022-08-23T07:48:35;51.80;;;30.67;;
72335;SDS011;62171;48.446;8.834;2022-08-23T07:51:03;28.10;;;16.80;;
72335;SDS011;62171;48.446;8.834;2022-08-23T07:53:31;16.55;;;10.20;;
72335;SDS011;62171;48.446;8.834;2022-08-23T07:55:56;10.10;;;6.72;;
72335;SDS011;62171;48.446;8.834;2022-08-23T07:58:22;7.40;;;5.05;;
72335;SDS011;62171;48.446;8.834;2022-08-23T08:00:49;5.53;;;4.72;;
72335;SDS011;62171;48.446;8.834;2022-08-23T08:03:16;4.75;;;4.18;;
72335;SDS011;62171;48.446;8.834;2022-08-23T08:05:42;4.70;;;3.65;;
72335;SDS011;62171;48.446;8.834;2022-08-23T08:08:09;5.00;;;3.38;;
72335;SDS011;62171;48.446;8.834;2022-08-23T08:10:35;5.15;;;3.60;;
72335;SDS011;62171;48.446;8.834;2022-08-23T08:13:02;5.97;;;3.97;;
72335;SDS011;62171;48.446;8.834;2022-08-23T08:15:28;4.60;;;3.95;;
72335;SDS011;62171;48.446;8.834;2022-08-23T08:17:54;3.92;;;3.53;;
72335;SDS011;62171;48.446;8.834;2022-08-23T08:20:19;4.85;;;3.55;;
72335;SDS011;62171;48.446;8.834;2022-08-23T08:22:46;5.60;;;3.45;;
72335;SDS011;62171;48.446;8.834;2022-08-23T08:25:12;3.70;;;2.83;;
72335;SDS011;62171;48.446;8.834;2022-08-23T08:27:38;5.35;;;3.00;;
72335;SDS011;62171;48.446;8.834;2022-08-23T08:30:05;7.05;;;3.08;;
72335;SDS011;62171;48.446;8.834;2022-08-23T08:32:31;5.18;;;3.50;;
72335;SDS011;62171;48.446;8.834;2022-08-23T08:34:57;3.58;;;2.90;;
72335;SDS011;62171;48.446;8.834;2022-08-23T08:37:22;6.32;;;3.60;;
72335;SDS011;62171;48.446;8.834;2022-08-23T08:39:47;5.38;;;3.38;;
72335;SDS011;62171;48.446;8.834;2022-08-23T08:44:57;3.83;;;2.67;;
72335;SDS011;62171;48.446;8.834;2022-08-23T08:55:47;4.88;;;2.88;;
72335;SDS011;62171;48.446;8.834;2022-08-23T08:58:24;9.13;;;4.20;;
72335;SDS011;62171;48.446;8.834;2022-08-23T09:00:51;3.28;;;2.53;;
72335;SDS011;62171;48.446;8.834;2022-08-23T09:03:18;2.85;;;2.10;;
72335;SDS011;62171;48.446;8.834;2022-08-23T09:05:48;4.57;;;2.25;;
72335;SDS011;62171;48.446;8.834;2022-08-23T09:16:53;5.47;;;1.90;;
72335;SDS011;62171;48.446;8.834;2022-08-23T09:19:22;3.33;;;2.00;;
72335;SDS011;62171;48.446;8.834;2022-08-23T09:22:00;6.10;;;1.50;;
72335;SDS011;62171;48.446;8.834;2022-08-23T09:24:29;6.47;;;1.73;;
72335;SDS011;62171;48.446;8.834;2022-08-23T09:26:54;4.65;;;1.83;;
72335;SDS011;62171;48.446;8.834;2022-08-23T09:29:22;5.35;;;1.73;;
72335;SDS011;62171;48.446;8.834;2022-08-23T09:31:57;5.75;;;2.10;;
72335;SDS011;62171;48.446;8.834;2022-08-23T09:39:43;7.80;;;1.80;;
72335;SDS011;62171;48.446;8.834;2022-08-23T09:44:54;5.10;;;1.70;;
72335;SDS011;62171;48.446;8.834;2022-08-23T09:47:20;4.43;;;2.45;;
72335;SDS011;62171;48.446;8.834;2022-08-23T09:49:56;2.88;;;1.52;;
72335;SDS011;62171;48.446;8.834;2022-08-23T09:52:33;4.10;;;1.90;;
72335;SDS011;62171;48.446;8.834;2022-08-23T09:55:06;4.45;;;1.73;;
72335;SDS011;62171;48.446;8.834;2022-08-23T09:57:34;4.63;;;1.55;;
72335;SDS011;62171;48.446;8.834;2022-08-23T10:02:39;4.40;;;1.60;;
72335;SDS011;62171;48.446;8.834;2022-08-23T10:05:06;5.72;;;1.90;;
72335;SDS011;62171;48.446;8.834;2022-08-23T10:07:52;3.60;;;1.52;;
72335;SDS011;62171;48.446;8.834;2022-08-23T10:13:11;4.97;;;1.60;;
72335;SDS011;62171;48.446;8.834;2022-08-23T10:16:24;4.97;;;1.40;;
72335;SDS011;62171;48.446;8.834;2022-08-23T10:21:45;2.15;;;1.50;;
72335;SDS011;62171;48.446;8.834;2022-08-23T10:27:26;2.63;;;1.50;;
72335;SDS011;62171;48.446;8.834;2022-08-23T10:30:16;2.45;;;1.40;;
72335;SDS011;62171;48.446;8.834;2022-08-23T10:43:55;1.50;;;1.25;;
72335;SDS011;62171;48.446;8.834;2022-08-23T10:45:52;2.10;;;1.25;;
72335;SDS011;62171;48.446;8.834;2022-08-23T10:53:20;3.78;;;1.73;;
72335;SDS011;62171;48.446;8.834;2022-08-23T10:55:56;3.92;;;1.50;;
72335;SDS011;62171;48.446;8.834;2022-08-23T10:59:29;3.53;;;1.58;;
72335;SDS011;62171;48.446;8.834;2022-08-23T11:07:38;2.90;;;1.70;;
72335;SDS011;62171;48.446;8.834;2022-08-23T11:13:25;2.67;;;1.63;;
72335;SDS011;62171;48.446;8.834;2022-08-23T11:18:37;2.85;;;1.30;;
72335;SDS011;62171;48.446;8.834;2022-08-23T11:21:05;3.25;;;1.38;;
72335;SDS011;62171;48.446;8.834;2022-08-23T11:26:00;2.00;;;1.42;;
72335;SDS011;62171;48.446;8.834;2022-08-23T11:33:22;5.65;;;1.70;;
72335;SDS011;62171;48.446;8.834;2022-08-23T11:35:54;2.10;;;1.38;;
72335;SDS011;62171;48.446;8.834;2022-08-23T11:43:43;2.53;;;1.50;;
72335;SDS011;62171;48.446;8.834;2022-08-23T11:51:53;2.22;;;1.60;;
72335;SDS011;62171;48.446;8.834;2022-08-23T12:21:24;1.75;;;1.20;;
72335;SDS011;62171;48.446;8.834;2022-08-23T12:23:56;1.90;;;1.10;;
72335;SDS011;62171;48.446;8.834;2022-08-23T12:26:25;2.80;;;1.20;;
72335;SDS011;62171;48.446;8.834;2022-08-23T12:29:08;2.55;;;1.10;;
72335;SDS011;62171;48.446;8.834;2022-08-23T12:31:41;1.90;;;1.20;;
72335;SDS011;62171;48.446;8.834;2022-08-23T12:39:39;2.60;;;1.20;;
72335;SDS011;62171;48.446;8.834;2022-08-23T12:42:15;1.67;;;1.00;;
72335;SDS011;62171;48.446;8.834;2022-08-23T12:44:44;1.90;;;1.20;;
72335;SDS011;62171;48.446;8.834;2022-08-23T12:47:16;2.17;;;1.10;;
72335;SDS011;62171;48.446;8.834;2022-08-23T12:49:58;1.60;;;1.02;;
72335;SDS011;62171;48.446;8.834;2022-08-23T12:52:25;2.47;;;1.10;;
72335;SDS011;62171;48.446;8.834;2022-08-23T12:54:53;1.48;;;1.20;;
72335;SDS011;62171;48.446;8.834;2022-08-23T12:57:32;1.85;;;1.30;;
72335;SDS011;62171;48.446;8.834;2022-08-23T13:03:21;2.53;;;1.00;;
72335;SDS011;62171;48.446;8.834;2022-08-23T13:05:59;2.13;;;1.10;;
72335;SDS011;62171;48.446;8.834;2022-08-23T13:08:33;1.15;;;1.00;;
72335;SDS011;62171;48.446;8.834;2022-08-23T13:11:03;1.55;;;1.05;;
72335;SDS011;62171;48.446;8.834;2022-08-23T13:13:30;2.38;;;1.10;;
72335;SDS011;62171;48.446;8.834;2022-08-23T13:15:56;3.30;;;1.20;;
72335;SDS011;62171;48.446;8.834;2022-08-23T13:18:25;2.13;;;1.10;;
72335;SDS011;62171;48.446;8.834;2022-08-23T13:23:43;2.60;;;1.20;;
72335;SDS011;62171;48.446;8.834;2022-08-23T13:26:34;2.25;;;1.10;;
72335;SDS011;62171;48.446;8.834;2022-08-23T13:31:54;1.90;;;1.10;;
72335;SDS011;62171;48.446;8.834;2022-08-23T13:36:59;2.38;;;1.10;;
72335;SDS011;62171;48.446;8.834;2022-08-23T13:39:26;2.03;;;1.20;;
72335;SDS011;62171;48.446;8.834;2022-08-23T13:41:54;1.35;;;0.98;;
72335;SDS011;62171;48.446;8.834;2022-08-23T13:44:19;1.35;;;1.20;;
72335;SDS011;62171;48.446;8.834;2022-08-23T13:46:46;2.25;;;1.25;;
72335;SDS011;62171;48.446;8.834;2022-08-23T13:49:17;1.42;;;1.00;;
72335;SDS011;62171;48.446;8.834;2022-08-23T13:52:07;2.83;;;1.30;;
72335;SDS011;62171;48.446;8.834;2022-08-23T13:54:33;2.95;;;1.20;;
72335;SDS011;62171;48.446;8.834;2022-08-23T13:57:00;1.40;;;1.08;;
72335;SDS011;62171;48.446;8.834;2022-08-23T14:01:56;3.67;;;1.15;;
72335;SDS011;62171;48.446;8.834;2022-08-23T14:04:22;2.53;;;1.20;;
72335;SDS011;62171;48.446;8.834;2022-08-23T14:06:48;2.20;;;1.30;;
72335;SDS011;62171;48.446;8.834;2022-08-23T14:09:14;3.47;;;1.10;;
72335;SDS011;62171;48.446;8.834;2022-08-23T14:11:40;1.70;;;1.15;;
72335;SDS011;62171;48.446;8.834;2022-08-23T14:14:06;2.75;;;1.08;;
72335;SDS011;62171;48.446;8.834;2022-08-23T14:16:34;2.50;;;1.35;;
72335;SDS011;62171;48.446;8.834;2022-08-23T14:19:04;2.22;;;1.20;;
72335;SDS011;62171;48.446;8.834;2022-08-23T14:21:32;3.20;;;1.20;;
72335;SDS011;62171;48.446;8.834;2022-08-23T14:23:57;3.53;;;1.20;;
72335;SDS011;62171;48.446;8.834;2022-08-23T14:26:23;3.05;;;1.50;;
72335;SDS011;62171;48.446;8.834;2022-08-23T14:28:48;4.95;;;1.30;;
72335;SDS011;62171;48.446;8.834;2022-08-23T14:31:15;2.67;;;1.25;;
72335;SDS011;62171;48.446;8.834;2022-08-23T14:33:41;1.42;;;1.05;;
72335;SDS011;62171;48.446;8.834;2022-08-23T14:36:07;2.17;;;1.23;;
72335;SDS011;62171;48.446;8.834;2022-08-23T14:38:33;1.67;;;1.10;;
72335;SDS011;62171;48.446;8.834;2022-08-23T14:41:02;3.25;;;1.13;;
72335;SDS011;62171;48.446;8.834;2022-08-23T14:43:31;1.88;;;1.10;;
72335;SDS011;62171;48.446;8.834;2022-08-23T14:45:57;1.80;;;1.30;;
72335;SDS011;62171;48.446;8.834;2022-08-23T14:48:23;1.27;;;0.90;;
72335;SDS011;62171;48.446;8.834;2022-08-23T14:50:52;2.35;;;1.20;;
72335;SDS011;62171;48.446;8.834;2022-08-23T14:53:20;4.38;;;1.30;;
72335;SDS011;62171;48.446;8.834;2022-08-23T14:55:48;1.65;;;1.20;;
72335;SDS011;62171;48.446;8.834;2022-08-23T14:58:15;3.35;;;1.30;;
72335;SDS011;62171;48.446;8.834;2022-08-23T15:00:41;1.95;;;1.02;;
72335;SDS011;62171;48.446;8.834;2022-08-23T15:03:07;2.10;;;1.83;;
72335;SDS011;62171;48.446;8.834;2022-08-23T15:05:34;5.32;;;3.42;;
72335;SDS011;62171;48.446;8.834;2022-08-23T15:08:00;3.45;;;1.73;;
72335;SDS011;62171;48.446;8.834;2022-08-23T15:10:26;2.22;;;1.20;;
72335;SDS011;62171;48.446;8.834;2022-08-23T15:12:51;2.15;;;1.40;;
72335;SDS011;62171;48.446;8.834;2022-08-23T15:15:18;1.80;;;0.90;;
72335;SDS011;62171;48.446;8.834;2022-08-23T15:17:46;2.58;;;1.40;;
72335;SDS011;62171;48.446;8.834;2022-08-23T15:20:18;2.55;;;1.52;;
72335;SDS011;62171;48.446;8.834;2022-08-23T15:22:49;1.40;;;1.00;;
72335;SDS011;62171;48.446;8.834;2022-08-23T15:25:15;1.27;;;1.10;;
72335;SDS011;62171;48.446;8.834;2022-08-23T15:27:41;2.15;;;1.17;;
72335;SDS011;62171;48.446;8.834;2022-08-23T15:30:09;1.88;;;1.20;;
72335;SDS011;62171;48.446;8.834;2022-08-23T15:32:39;1.45;;;1.10;;
72335;SDS011;62171;48.446;8.834;2022-08-23T15:35:06;1.52;;;1.05;;
72335;SDS011;62171;48.446;8.834;2022-08-23T15:37:32;1.13;;;1.02;;
72335;SDS011;62171;48.446;8.834;2022-08-23T15:39:58;2.15;;;1.00;;
72335;SDS011;62171;48.446;8.834;2022-08-23T15:42:24;3.92;;;1.45;;
72335;SDS011;62171;48.446;8.834;2022-08-23T15:44:49;1.80;;;1.20;;
72335;SDS011;62171;48.446;8.834;2022-08-23T15:47:22;2.28;;;1.10;;
72335;SDS011;62171;48.446;8.834;2022-08-23T15:49:51;2.85;;;1.20;;
72335;SDS011;62171;48.446;8.834;2022-08-23T15:52:17;2.17;;;1.13;;
72335;SDS011;62171;48.446;8.834;2022-08-23T15:54:44;1.25;;;1.00;;
72335;SDS011;62171;48.446;8.834;2022-08-23T15:57:17;2.55;;;1.00;;
72335;SDS011;62171;48.446;8.834;2022-08-23T15:59:48;1.60;;;1.20;;
72335;SDS011;62171;48.446;8.834;2022-08-23T16:02:13;1.95;;;1.30;;
72335;SDS011;62171;48.446;8.834;2022-08-23T16:04:39;1.80;;;1.08;;
72335;SDS011;62171;48.446;8.834;2022-08-23T16:07:08;1.95;;;1.10;;
72335;SDS011;62171;48.446;8.834;2022-08-23T16:09:36;1.73;;;1.20;;
72335;SDS011;62171;48.446;8.834;2022-08-23T16:12:02;1.77;;;1.13;;
72335;SDS011;62171;48.446;8.834;2022-08-23T16:14:29;2.47;;;1.15;;
72335;SDS011;62171;48.446;8.834;2022-08-23T16:16:56;2.88;;;1.15;;
72335;SDS011;62171;48.446;8.834;2022-08-23T16:19:22;3.38;;;1.00;;
72335;SDS011;62171;48.446;8.834;2022-08-23T16:21:49;3.38;;;1.10;;
72335;SDS011;62171;48.446;8.834;2022-08-23T16:24:17;2.63;;;1.27;;
72335;SDS011;62171;48.446;8.834;2022-08-23T16:26:44;2.10;;;1.10;;
72335;SDS011;62171;48.446;8.834;2022-08-23T16:29:10;2.88;;;1.25;;
72335;SDS011;62171;48.446;8.834;2022-08-23T16:31:37;1.88;;;1.10;;
72335;SDS011;62171;48.446;8.834;2022-08-23T16:34:04;2.90;;;1.17;;
72335;SDS011;62171;48.446;8.834;2022-08-23T16:36:31;2.78;;;1.20;;
72335;SDS011;62171;48.446;8.834;2022-08-23T16:38:57;2.90;;;1.17;;
72335;SDS011;62171;48.446;8.834;2022-08-23T16:41:23;1.90;;;1.00;;
72335;SDS011;62171;48.446;8.834;2022-08-23T16:43:49;1.35;;;1.20;;
72335;SDS011;62171;48.446;8.834;2022-08-23T16:46:15;1.50;;;1.10;;
72335;SDS011;62171;48.446;8.834;2022-08-23T16:48:42;2.78;;;1.20;;
72335;SDS011;62171;48.446;8.834;2022-08-23T16:51:08;1.63;;;1.20;;
72335;SDS011;62171;48.446;8.834;2022-08-23T16:53:34;2.08;;;1.33;;
72335;SDS011;62171;48.446;8.834;2022-08-23T16:56:01;1.40;;;1.30;;
72335;SDS011;62171;48.446;8.834;2022-08-23T16:58:27;1.30;;;1.20;;
72335;SDS011;62171;48.446;8.834;2022-08-23T17:00:53;2.55;;;1.30;;
72335;SDS011;62171;48.446;8.834;2022-08-23T17:03:18;2.42;;;1.30;;
72335;SDS011;62171;48.446;8.834;2022-08-23T17:05:44;1.67;;;1.45;;
72335;SDS011;62171;48.446;8.834;2022-08-23T17:08:11;2.33;;;1.40;;